Time;durP1;ratioP1;P1;durP2;ratioP2;P2;SDS_P1;SDS_P2;PMS_P1;PMS_P2;Temp;Humidity;BMP_temperature;BMP_pressure;BME280_temperature;BME280_humidity;BME280_pressure;Samples;Min_cycle;Max_cycle;Signal;HPM_P1;HPM_P2
2023/01/02 00:00:20;;;;;;;19.50;10.38;;;;;;;11.23;72.27;101205.09;1724557;81;21155;-79
2023/01/02 00:02:46;;;;;;;15.48;9.35;;;;;;;11.23;72.29;101208.12;1682904;83;493053;-79
2023/01/02 00:05:13;;;;;;;20.85;10.48;;;;;;;11.22;72.31;101208.55;1718134;82;21058;-80
2023/01/02 00:07:40;;;;;;;27.98;10.28;;;;;;;11.22;72.32;101205.11;1724836;82;21629;-79
2023/01/02 00:10:06;;;;;;;;;;;;;;;11.21;72.35;101201.66;1719136;82;21056;-79
2023/01/02 00:12:33;;;;;;;18.32;9.35;;;;;;;11.20;72.38;101211.59;1686998;84;20204;-79
2023/01/02 00:14:59;;;;;;;19.52;9.63;;;;;;;11.20;72.38;101211.59;1660083;85;21857;-80
2023/01/02 00:17:26;;;;;;;21.33;10.23;;;;;;;11.20;72.42;101207.72;1637124;85;21093;-80
2023/01/02 00:19:52;;;;;;;16.87;10.20;;;;;;;11.19;72.45;101215.05;1648134;84;21309;-79
2023/01/02 00:22:19;;;;;;;17.50;10.95;;;;;;;11.19;72.45;101206.43;1650531;85;21082;-80
2023/01/02 00:24:45;;;;;;;19.87;10.82;;;;;;;11.18;72.47;101212.48;1683121;84;21080;-79
2023/01/02 00:27:12;;;;;;;19.73;10.90;;;;;;;11.17;72.50;101218.09;1653574;85;21072;-79
2023/01/02 00:29:38;;;;;;;18.65;10.58;;;;;;;11.16;72.52;101222.84;1654405;84;21047;-79
2023/01/02 00:32:05;;;;;;;19.77;10.58;;;;;;;11.16;72.54;101222.84;1660484;85;21646;-79
2023/01/02 00:34:31;;;;;;;18.98;9.30;;;;;;;11.16;72.55;101224.58;1681031;84;29061;-79
2023/01/02 00:36:58;;;;;;;21.42;10.15;;;;;;;11.14;72.59;101224.59;1683527;84;21072;-79
2023/01/02 00:39:24;;;;;;;22.87;10.03;;;;;;;11.13;72.64;101225.89;1676019;84;21056;-79
2023/01/02 00:41:51;;;;;;;19.75;9.50;;;;;;;11.14;72.66;101225.88;1636249;86;21065;-79
2023/01/02 00:44:17;;;;;;;16.67;10.38;;;;;;;11.14;72.68;101221.14;1653917;85;21095;-79
2023/01/02 00:46:44;;;;;;;14.95;9.70;;;;;;;11.14;72.71;101220.70;1659857;85;21070;-80
2023/01/02 00:49:11;;;;;;;16.77;9.53;;;;;;;11.14;72.73;101219.41;1646776;85;21074;-80
2023/01/02 00:51:37;;;;;;;21.17;10.05;;;;;;;11.15;72.76;101225.02;1664073;85;21068;-79
2023/01/02 00:54:03;;;;;;;18.02;9.43;;;;;;;11.13;72.78;101224.17;1670348;84;21053;-79
2023/01/02 00:56:30;;;;;;;20.00;10.03;;;;;;;11.13;72.80;101224.60;1652205;85;21794;-79
2023/01/02 00:58:56;;;;;;;19.05;9.50;;;;;;;11.12;72.86;101218.56;1648973;86;21616;-79
2023/01/02 01:01:23;;;;;;;17.27;9.90;;;;;;;11.11;72.86;101220.73;1653739;86;21502;-80
2023/01/02 01:03:49;;;;;;;18.98;11.30;;;;;;;11.12;72.93;101222.88;1654163;86;21071;-80
2023/01/02 01:06:16;;;;;;;18.35;10.38;;;;;;;11.12;72.93;101213.39;1657455;84;21068;-80
2023/01/02 01:08:43;;;;;;;15.18;10.45;;;;;;;11.12;72.92;101206.06;1659680;86;21069;-80
2023/01/02 01:11:12;;;;;;;16.55;9.23;;;;;;;11.08;72.97;101202.64;1653309;86;21640;-80
2023/01/02 01:13:40;;;;;;;24.10;10.03;;;;;;;11.07;73.01;101204.81;1646179;86;21096;-79
2023/01/02 01:16:08;;;;;;;;;;;;;;;11.07;73.06;101209.98;1646251;84;21108;-79
2023/01/02 01:18:35;;;;;;;15.38;9.30;;;;;;;11.07;73.28;101210.42;1646746;86;20642;-79
2023/01/02 01:21:12;;;;;;;18.35;9.98;;;;;;;11.05;73.11;101224.67;1642702;86;21658;-79
2023/01/02 01:23:39;;;;;;;16.60;9.08;;;;;;;11.04;73.13;101219.50;1647261;86;21081;-80
2023/01/02 01:26:08;;;;;;;17.60;10.45;;;;;;;11.02;73.17;101219.95;1657544;85;21088;-79
2023/01/02 01:28:35;;;;;;;18.10;10.05;;;;;;;11.00;73.21;101212.63;1652932;86;21692;-79
2023/01/02 01:31:07;;;;;;;17.37;10.63;;;;;;;10.96;73.26;101205.33;1641152;84;27464;-79
2023/01/02 01:33:34;;;;;;;22.52;9.83;;;;;;;10.96;73.28;101205.33;1657693;86;21812;-79
2023/01/02 01:36:11;;;;;;;23.00;11.18;;;;;;;10.94;73.34;101194.98;1642495;86;21381;-79
2023/01/02 01:38:37;;;;;;;18.42;11.08;;;;;;;10.93;73.40;101189.83;1657599;86;21072;-79
2023/01/02 01:41:05;;;;;;;20.82;10.70;;;;;;;10.90;73.40;101180.39;1649019;86;21672;-79
2023/01/02 01:43:45;;;;;;;19.85;10.60;;;;;;;10.89;73.47;101180.41;1654915;86;21104;-80
2023/01/02 01:46:36;;;;;;;20.05;10.65;;;;;;;10.88;73.50;101177.40;1650358;86;21762;-79
2023/01/02 01:49:13;;;;;;;20.32;13.13;;;;;;;10.86;73.52;101158.44;1643256;86;21076;-79
2023/01/02 01:51:48;;;;;;;21.40;13.10;;;;;;;10.85;73.57;101155.43;1654600;86;21076;-79
2023/01/02 01:54:19;;;;;;;19.98;10.20;;;;;;;10.85;73.58;101155.00;1645444;84;21084;-79
2023/01/02 01:56:51;;;;;;;14.73;10.05;;;;;;;10.84;73.61;101139.05;1658092;84;21358;-79
2023/01/02 01:59:18;;;;;;;17.75;9.75;;;;;;;10.81;73.64;101132.61;1676967;83;21191;-79
2023/01/02 02:01:47;;;;;;;20.62;9.85;;;;;;;10.81;73.68;101135.63;1736858;81;21095;-79
2023/01/02 02:04:18;;;;;;;16.70;10.35;;;;;;;10.79;73.69;101132.20;1729839;81;21064;-79
2023/01/02 02:06:44;;;;;;;14.10;9.33;;;;;;;10.77;73.74;101133.50;1730432;81;21072;-79
2023/01/02 02:09:33;;;;;;;18.37;10.23;;;;;;;10.78;73.80;101126.60;1702941;81;21050;-80
2023/01/02 02:11:59;;;;;;;17.35;10.18;;;;;;;10.78;73.82;101119.70;1728125;81;21052;-79
2023/01/02 02:14:26;;;;;;;19.95;9.70;;;;;;;10.78;73.86;101113.23;1715035;82;21091;-79
2023/01/02 02:17:00;;;;;;;16.95;10.35;;;;;;;10.79;73.86;101111.07;1692344;83;21066;-79
2023/01/02 02:20:05;;;;;;;15.68;8.93;;;;;;;10.78;73.85;101112.38;1573351;89;22508;-80
2023/01/02 02:23:14;;;;;;;19.15;9.98;;;;;;;10.77;73.86;101101.17;1576517;88;21178;-79
2023/01/02 02:26:04;;;;;;;17.73;9.50;;;;;;;10.75;73.92;101108.09;1594267;89;21172;-79
2023/01/02 02:29:17;;;;;;;17.40;9.68;;;;;;;10.73;73.92;101097.33;1588163;89;21123;-79
2023/01/02 02:32:16;;;;;;;15.35;9.45;;;;;;;10.72;73.95;101094.33;1621409;87;21213;-79
2023/01/02 02:34:51;;;;;;;17.75;8.80;;;;;;;10.71;73.98;101099.08;1592551;88;21092;-79
2023/01/02 02:37:25;;;;;;;15.13;9.03;;;;;;;10.70;74.00;101105.97;1605783;87;21096;-79
2023/01/02 02:40:29;;;;;;;18.10;10.00;;;;;;;10.68;74.03;101109.02;1591443;87;21145;-79
2023/01/02 02:43:26;;;;;;;14.98;8.90;;;;;;;10.69;74.05;101102.11;1607413;87;21133;-79
2023/01/02 02:46:12;;;;;;;14.05;9.00;;;;;;;10.67;74.04;101104.70;1605453;88;21092;-79
2023/01/02 02:49:05;;;;;;;16.80;10.45;;;;;;;10.66;74.09;101096.96;1593452;89;21640;-79
2023/01/02 02:51:39;;;;;;;18.27;10.25;;;;;;;10.66;74.09;101086.18;1602377;87;21532;-79
2023/01/02 02:54:17;;;;;;;25.20;13.28;;;;;;;10.65;74.12;101077.14;1593563;87;39344;-79
2023/01/02 02:56:46;;;;;;;18.82;11.55;;;;;;;10.69;74.17;101075.81;1635100;84;21484;-79
2023/01/02 02:59:12;;;;;;;24.70;11.68;;;;;;;10.69;74.21;101077.10;1678866;83;21054;-79
2023/01/02 03:01:39;;;;;;;19.57;12.03;;;;;;;10.70;74.25;101067.61;1679436;83;21077;-79
2023/01/02 03:04:19;;;;;;;18.15;11.30;;;;;;;10.70;74.26;101065.03;1691980;83;21123;-79
2023/01/02 03:07:22;;;;;;;15.68;10.10;;;;;;;10.70;74.29;101058.56;1672135;84;21317;-79
2023/01/02 03:10:27;;;;;;;19.70;11.05;;;;;;;10.70;74.33;101065.03;1727228;82;21052;-79
2023/01/02 03:13:20;;;;;;;19.15;10.82;;;;;;;10.70;74.34;101063.30;1724019;81;21371;-79
2023/01/02 03:16:29;;;;;;;22.55;11.10;;;;;;;10.71;74.38;101066.31;1713512;81;21156;-79
2023/01/02 03:19:06;;;;;;;20.25;10.40;;;;;;;10.70;74.41;101057.27;1724773;81;21045;-79
2023/01/02 03:22:08;;;;;;;20.25;9.65;;;;;;;10.71;74.43;101057.69;1722172;81;21602;-79
2023/01/02 03:24:37;;;;;;;16.42;9.85;;;;;;;10.71;74.43;101058.98;1713596;81;21539;-79
2023/01/02 03:27:12;;;;;;;15.23;10.35;;;;;;;10.70;74.47;101052.95;1723081;81;21032;-80
2023/01/02 03:29:55;;;;;;;21.85;10.35;;;;;;;10.70;74.48;101049.08;1718669;81;21095;-79
2023/01/02 03:32:43;;;;;;;15.63;10.03;;;;;;;10.70;74.48;101052.95;1721122;81;21067;-79
2023/01/02 03:35:14;;;;;;;18.62;10.00;;;;;;;10.70;74.50;101051.66;1723696;81;21506;-79
2023/01/02 03:37:45;;;;;;;19.67;9.85;;;;;;;10.70;74.54;101043.91;1721603;81;21436;-79
2023/01/02 03:40:23;;;;;;;17.40;10.13;;;;;;;10.68;74.49;101034.44;1716878;81;21047;-80
2023/01/02 03:43:09;;;;;;;20.30;11.08;;;;;;;10.66;74.53;101036.19;1725785;81;21035;-79
2023/01/02 03:45:41;;;;;;;18.67;9.93;;;;;;;10.64;74.58;101026.30;1719573;81;21103;-79
2023/01/02 03:48:33;;;;;;;16.73;9.30;;;;;;;10.64;74.61;101020.69;1714175;81;21194;-80
2023/01/02 03:51:01;;;;;;;18.25;10.03;;;;;;;10.63;74.63;101017.67;1726480;81;21043;-80
2023/01/02 03:53:30;;;;;;;18.87;9.83;;;;;;;10.63;74.63;101012.50;1698009;81;21401;-80
2023/01/02 03:56:30;;;;;;;20.02;11.40;;;;;;;10.62;74.64;101009.50;1710184;81;21029;-80
2023/01/02 03:59:29;;;;;;;14.15;9.05;;;;;;;10.59;74.65;101005.21;1604473;88;21115;-80
2023/01/02 04:02:34;;;;;;;15.85;9.13;;;;;;;10.58;74.68;101000.05;1581316;89;21531;-79
2023/01/02 04:05:12;;;;;;;19.05;10.53;;;;;;;10.55;74.65;100988.45;1604688;87;21160;-80
2023/01/02 04:08:11;;;;;;;20.27;9.90;;;;;;;10.53;74.69;100987.61;1604442;88;21097;-80
2023/01/02 04:10:40;;;;;;;19.67;9.75;;;;;;;10.52;74.70;100984.16;1572130;89;21695;-79
2023/01/02 04:13:23;;;;;;;17.23;9.30;;;;;;;10.47;74.68;100985.08;1573144;89;21082;-79
2023/01/02 04:15:52;;;;;;;18.48;10.13;;;;;;;10.44;74.70;100980.80;1604191;89;21128;-79
2023/01/02 04:18:23;;;;;;;14.00;8.68;;;;;;;10.43;74.74;100991.15;1588853;88;21099;-79
2023/01/02 04:20:53;;;;;;;18.37;8.55;;;;;;;10.42;74.75;100984.27;1604754;89;21593;-80
2023/01/02 04:23:36;;;;;;;17.35;10.05;;;;;;;10.40;74.75;100971.82;1572361;89;21124;-80
2023/01/02 04:26:11;;;;;;;21.60;10.13;;;;;;;10.37;74.74;100967.53;1572310;90;21135;-79
2023/01/02 04:28:38;;;;;;;17.15;9.73;;;;;;;10.33;74.79;100958.09;1551635;91;21220;-79
2023/01/02 04:31:17;;;;;;;;;;;;;;;10.31;74.82;100955.10;1574546;89;21071;-79
2023/01/02 04:33:50;;;;;;;13.80;9.25;;;;;;;10.26;74.95;100945.66;1547299;91;20206;-79
2023/01/02 04:36:17;;;;;;;17.25;9.18;;;;;;;10.23;74.86;100946.98;1643312;84;21047;-79
2023/01/02 04:38:45;;;;;;;15.55;8.90;;;;;;;10.24;74.93;100936.21;1702426;82;21105;-80
2023/01/02 04:41:29;;;;;;;14.85;9.28;;;;;;;10.22;74.88;100928.91;1701487;84;21132;-79
2023/01/02 04:43:55;;;;;;;16.77;9.20;;;;;;;10.21;74.93;100929.78;1689100;84;21051;-79
2023/01/02 04:46:24;;;;;;;23.02;10.68;;;;;;;10.22;74.98;100935.37;1701575;82;21055;-80
2023/01/02 04:48:51;;;;;;;15.88;10.25;;;;;;;10.23;74.99;100936.64;1694170;82;21067;-79
2023/01/02 04:51:18;;;;;;;18.00;9.58;;;;;;;10.24;75.00;100940.09;1704271;82;21059;-79
2023/01/02 04:53:48;;;;;;;16.42;9.40;;;;;;;10.25;75.01;100933.61;1707575;82;21147;-80
2023/01/02 04:56:14;;;;;;;13.80;9.03;;;;;;;10.28;75.02;100945.65;1666641;84;21043;-79
2023/01/02 04:58:43;;;;;;;24.30;10.28;;;;;;;10.29;75.06;100940.91;1688429;83;21048;-79
2023/01/02 05:01:13;;;;;;;17.65;9.18;;;;;;;10.31;75.07;100941.74;1683443;83;21659;-79
2023/01/02 05:03:42;;;;;;;16.62;8.63;;;;;;;10.34;75.09;100935.69;1693714;84;21118;-79
2023/01/02 05:06:08;;;;;;;18.32;9.05;;;;;;;10.35;75.09;100926.62;1710500;81;21317;-79
2023/01/02 05:08:36;;;;;;;17.87;9.03;;;;;;;10.37;75.09;100933.93;1729164;81;26462;-79
2023/01/02 05:11:10;;;;;;;21.50;8.93;;;;;;;10.39;75.12;100922.28;1684109;83;21122;-79
2023/01/02 05:13:37;;;;;;;13.53;8.83;;;;;;;10.40;75.13;100917.53;1718549;82;21107;-79
2023/01/02 05:16:05;;;;;;;14.43;9.15;;;;;;;10.42;75.14;100915.75;1718280;81;21055;-79
2023/01/02 05:18:32;;;;;;;15.18;9.13;;;;;;;10.43;75.15;100913.59;1719444;81;21507;-79
2023/01/02 05:21:05;;;;;;;15.68;8.35;;;;;;;10.44;75.17;100916.16;1727564;81;21107;-80
2023/01/02 05:23:50;;;;;;;15.50;9.30;;;;;;;10.46;75.16;100916.14;1699328;82;21569;-80
2023/01/02 05:26:17;;;;;;;20.27;9.73;;;;;;;10.46;75.18;100917.44;1672385;84;21651;-79
2023/01/02 05:28:44;;;;;;;19.95;9.63;;;;;;;10.48;75.20;100918.28;1720426;81;21046;-80
2023/01/02 05:31:11;;;;;;;;;;;;;;;10.48;75.21;100909.23;1675165;83;21746;-79
2023/01/02 05:33:37;;;;;;;;;;;;;;;10.50;75.29;100901.02;1692559;83;20230;-79
2023/01/02 05:36:06;;;;;;;16.80;8.45;;;;;;;10.49;75.29;100897.58;1678984;83;20202;-79
2023/01/02 05:38:33;;;;;;;23.90;9.80;;;;;;;10.49;75.22;100893.70;1706221;82;21548;-79
2023/01/02 05:41:04;;;;;;;17.95;9.38;;;;;;;10.49;75.20;100887.67;1707698;82;21617;-83
2023/01/02 05:43:33;;;;;;;17.45;9.25;;;;;;;10.49;75.21;100888.97;1729023;81;21831;-81
2023/01/02 05:46:12;;;;;;;16.32;9.83;;;;;;;10.48;75.25;100885.52;1689936;83;21118;-82
2023/01/02 05:48:40;;;;;;;26.85;10.10;;;;;;;10.49;75.25;100887.23;1725137;81;21516;-81
2023/01/02 05:51:10;;;;;;;20.75;9.80;;;;;;;10.50;75.25;100885.51;1720225;82;21023;-81
2023/01/02 05:53:37;;;;;;;16.95;10.35;;;;;;;10.50;75.27;100881.19;1724496;81;21068;-81
2023/01/02 05:56:16;;;;;;;15.75;9.93;;;;;;;10.50;75.26;100883.78;1728782;81;21666;-82
2023/01/02 05:58:48;;;;;;;15.23;8.85;;;;;;;10.50;75.28;100885.07;1682901;83;21629;-81
2023/01/02 06:01:18;;;;;;;17.87;9.53;;;;;;;10.51;75.28;100883.34;1654607;85;21606;-81
2023/01/02 06:03:48;;;;;;;16.48;8.60;;;;;;;10.51;75.25;100887.22;1654261;84;21069;-81
2023/01/02 06:06:16;;;;;;;14.87;8.68;;;;;;;10.49;75.27;100881.20;1652857;85;21157;-82
2023/01/02 06:08:43;;;;;;;16.52;10.00;;;;;;;10.47;75.30;100878.64;1650473;85;21923;-81
2023/01/02 06:11:10;;;;;;;16.95;9.30;;;;;;;10.47;75.28;100882.52;1643314;85;21069;-81
2023/01/02 06:13:38;;;;;;;17.40;9.58;;;;;;;10.46;75.27;100883.39;1650587;85;21500;-81
2023/01/02 06:16:08;;;;;;;17.02;9.13;;;;;;;10.44;75.27;100882.55;1667078;85;21996;-81
2023/01/02 06:18:36;;;;;;;17.45;8.55;;;;;;;10.44;75.30;100880.41;1665875;85;21121;-81
2023/01/02 06:21:10;;;;;;;15.70;9.03;;;;;;;10.43;75.32;100878.25;1665676;85;21194;-81
2023/01/02 06:23:37;;;;;;;14.55;8.63;;;;;;;10.43;75.32;100875.67;1654818;85;21653;-81
2023/01/02 06:26:14;;;;;;;17.30;9.25;;;;;;;10.43;75.32;100875.67;1667595;84;21413;-81
2023/01/02 06:28:41;;;;;;;16.35;8.80;;;;;;;10.44;75.33;100877.81;1663975;84;21065;-82
2023/01/02 06:31:12;;;;;;;11.10;8.15;;;;;;;10.43;75.32;100878.25;1659815;84;21621;-82
2023/01/02 06:33:39;;;;;;;15.72;9.15;;;;;;;10.45;75.35;100874.36;1650385;85;22018;-81
2023/01/02 06:36:11;;;;;;;;;;;;;;;10.45;75.34;100870.05;1668430;85;21116;-81
2023/01/02 06:38:38;;;;;;;12.58;8.05;;;;;;;10.45;75.35;100875.22;1660517;84;20217;-81
2023/01/02 06:41:06;;;;;;;16.15;8.88;;;;;;;10.46;75.33;100887.70;1678572;84;21593;-81
2023/01/02 06:43:34;;;;;;;13.40;8.55;;;;;;;10.46;75.34;100879.52;1684058;83;21656;-81
2023/01/02 06:46:03;;;;;;;14.00;9.65;;;;;;;10.46;75.33;100874.34;1687407;83;21519;-82
2023/01/02 06:48:33;;;;;;;14.10;8.15;;;;;;;10.47;75.34;100876.05;1678212;84;21524;-82
2023/01/02 06:51:10;;;;;;;14.43;9.28;;;;;;;10.48;75.34;100873.89;1683439;84;21065;-81
2023/01/02 06:53:38;;;;;;;13.28;8.40;;;;;;;10.49;75.33;100878.19;1681339;84;21043;-81
2023/01/02 06:56:06;;;;;;;14.40;9.23;;;;;;;10.50;75.34;100876.02;1675335;83;21578;-81
2023/01/02 06:58:35;;;;;;;11.80;8.93;;;;;;;10.50;75.31;100867.41;1564040;84;9999898;-81
2023/01/02 07:01:05;;;;;;;13.98;8.70;;;;;;;10.52;75.34;100878.59;1665593;85;21555;-81
2023/01/02 07:03:32;;;;;;;18.10;9.18;;;;;;;10.53;75.32;100877.72;1664726;84;21558;-81
2023/01/02 07:06:03;;;;;;;11.57;8.83;;;;;;;10.54;75.33;100876.84;1664496;84;21075;-81
2023/01/02 07:08:31;;;;;;;12.93;9.28;;;;;;;10.54;75.33;100878.14;1666674;84;22180;-81
2023/01/02 07:11:13;;;;;;;18.50;9.20;;;;;;;10.55;75.34;100877.27;1655879;85;21132;-81
2023/01/02 07:13:42;;;;;;;19.00;8.73;;;;;;;10.56;75.33;100875.95;1633704;85;21023;-81
2023/01/02 07:16:12;;;;;;;13.95;9.45;;;;;;;10.58;75.35;100878.08;1630808;86;22282;-81
2023/01/02 07:18:39;;;;;;;14.18;8.68;;;;;;;10.59;75.34;100872.47;1630576;85;21788;-81
2023/01/02 07:21:07;;;;;;;;;;;;;;;10.59;75.32;100869.45;1631490;87;21075;-82
2023/01/02 07:23:35;;;;;;;12.98;8.40;;;;;;;10.62;75.30;100876.31;1626976;86;20479;-81
2023/01/02 07:26:04;;;;;;;11.97;7.58;;;;;;;10.63;75.33;100875.88;1654790;84;21044;-80
2023/01/02 07:28:31;;;;;;;15.23;8.33;;;;;;;10.64;75.31;100869.83;1652341;84;21507;-80
2023/01/02 07:31:01;;;;;;;12.65;7.95;;;;;;;10.65;75.33;100865.08;1652015;84;21465;-79
2023/01/02 07:33:29;;;;;;;15.50;8.30;;;;;;;10.68;75.32;100867.19;1652104;84;21581;-80
2023/01/02 07:36:03;;;;;;;13.85;7.40;;;;;;;10.71;75.33;100854.22;1653081;84;21084;-80
2023/01/02 07:38:30;;;;;;;14.35;8.30;;;;;;;10.73;75.31;100861.53;1654859;85;21056;-79
2023/01/02 07:40:56;;;;;;;12.28;7.62;;;;;;;10.78;75.31;100858.88;1654961;84;21056;-79
2023/01/02 07:43:23;;;;;;;12.53;8.45;;;;;;;10.81;75.29;100862.72;1628574;85;21119;-80
2023/01/02 07:45:49;;;;;;;;;;;;;;;10.84;75.27;100868.71;1657293;84;22173;-79
2023/01/02 07:48:16;;;;;;;11.28;7.37;;;;;;;10.87;75.17;100872.99;1655457;85;25220;-79
2023/01/02 07:50:42;;;;;;;11.08;7.58;;;;;;;10.89;75.26;100862.19;1654371;85;21051;-80
2023/01/02 07:53:09;;;;;;;10.72;7.42;;;;;;;10.92;75.24;100859.09;1654493;84;21730;-79
2023/01/02 07:55:35;;;;;;;11.90;6.75;;;;;;;10.95;75.26;100864.66;1654667;84;21079;-80
2023/01/02 07:58:02;;;;;;;11.90;7.22;;;;;;;10.99;75.23;100862.45;1653784;84;21310;-79
2023/01/02 08:00:28;;;;;;;8.95;6.45;;;;;;;11.02;75.23;100855.08;1665304;84;21081;-79
2023/01/02 08:02:55;;;;;;;9.35;7.03;;;;;;;11.05;75.22;100865.39;1672425;84;21089;-79
2023/01/02 08:05:22;;;;;;;14.55;7.50;;;;;;;11.08;75.20;100866.64;1673044;84;21165;-80
2023/01/02 08:07:48;;;;;;;15.32;8.15;;;;;;;11.11;75.21;100873.92;1672821;84;21717;-80
2023/01/02 08:10:15;;;;;;;13.88;8.25;;;;;;;11.14;75.17;100879.50;1673563;83;21101;-79
2023/01/02 08:12:41;;;;;;;11.20;7.45;;;;;;;11.17;75.17;100880.31;1655664;85;21075;-79
2023/01/02 08:15:08;;;;;;;11.63;7.30;;;;;;;11.19;75.17;100879.85;1625910;86;21142;-80
2023/01/02 08:17:35;;;;;;;14.33;8.08;;;;;;;11.21;75.17;100879.39;1654842;85;21075;-79
2023/01/02 08:20:02;;;;;;;11.22;7.85;;;;;;;11.25;75.16;100884.94;1628257;87;27155;-79
2023/01/02 08:22:28;;;;;;;14.33;8.48;;;;;;;11.27;75.14;100870.69;1568401;85;5001174;-80
2023/01/02 08:24:55;;;;;;;17.15;9.73;;;;;;;11.32;75.12;100879.67;1716244;82;21491;-79
2023/01/02 08:27:21;;;;;;;15.32;7.65;;;;;;;11.33;75.13;100880.95;1728878;82;21089;-79
2023/01/02 08:29:48;;;;;;;10.48;7.53;;;;;;;11.38;75.10;100878.30;1727970;82;27947;-79
2023/01/02 08:32:14;;;;;;;10.23;6.97;;;;;;;11.40;75.08;100876.53;1727051;82;21100;-78
2023/01/02 08:34:41;;;;;;;12.28;8.25;;;;;;;11.40;75.07;100877.39;1728252;82;21067;-79
2023/01/02 08:37:07;;;;;;;12.73;7.33;;;;;;;11.43;75.06;100871.31;1725890;82;21061;-79
2023/01/02 08:39:34;;;;;;;13.10;6.78;;;;;;;11.45;75.05;100867.79;1723426;82;21073;-79
2023/01/02 08:42:00;;;;;;;12.95;6.65;;;;;;;11.48;75.04;100866.89;1726567;82;21088;-79
2023/01/02 08:44:27;;;;;;;14.35;6.90;;;;;;;11.50;75.04;100871.16;1725627;82;21081;-79
2023/01/02 08:46:53;;;;;;;9.88;7.05;;;;;;;11.54;75.02;100872.83;1727600;82;21105;-79
2023/01/02 08:49:20;;;;;;;8.85;6.25;;;;;;;11.60;75.00;100879.64;1727991;82;21478;-79
2023/01/02 08:51:46;;;;;;;10.60;6.45;;;;;;;11.65;75.01;100884.75;1728301;82;21112;-79
2023/01/02 08:54:13;;;;;;;9.03;6.08;;;;;;;11.71;74.98;100881.63;1723085;82;21169;-79
2023/01/02 08:56:41;;;;;;;11.15;7.25;;;;;;;11.75;74.97;100875.52;1722972;82;21032;-79
2023/01/02 08:59:11;;;;;;;11.75;6.80;;;;;;;11.82;74.93;100879.75;1724946;82;21861;-79
2023/01/02 09:01:38;;;;;;;11.00;6.08;;;;;;;11.87;74.89;100876.64;1721792;82;21045;-79
2023/01/02 09:04:06;;;;;;;12.53;6.70;;;;;;;11.92;74.89;100881.74;1722111;82;21429;-79
2023/01/02 09:06:35;;;;;;;9.38;5.95;;;;;;;11.95;74.82;100871.77;1725493;82;21464;-79
2023/01/02 09:09:04;;;;;;;8.68;6.10;;;;;;;11.98;74.83;100885.49;1728045;82;21050;-79
2023/01/02 09:11:34;;;;;;;10.43;6.12;;;;;;;11.99;74.75;100885.05;1721594;82;21622;-79
2023/01/02 09:14:03;;;;;;;10.32;6.67;;;;;;;12.01;74.79;100878.96;1716981;82;21127;-79
2023/01/02 09:16:30;;;;;;;10.08;6.35;;;;;;;12.03;74.74;100886.27;1721779;82;21052;-80
2023/01/02 09:18:59;;;;;;;11.18;7.45;;;;;;;12.04;74.74;100889.71;1722843;82;21568;-79
2023/01/02 09:21:26;;;;;;;13.38;8.28;;;;;;;12.06;74.68;100890.55;1725462;82;21063;-80
2023/01/02 09:23:53;;;;;;;17.70;9.93;;;;;;;12.07;74.70;100891.81;1720146;82;21502;-80
2023/01/02 09:26:19;;;;;;;13.60;9.55;;;;;;;12.08;74.67;100890.93;1724380;82;21331;-80
2023/01/02 09:28:45;;;;;;;15.35;9.03;;;;;;;12.10;74.65;100883.98;1721637;82;21088;-75
2023/01/02 09:31:14;;;;;;;14.13;8.80;;;;;;;12.12;74.62;100869.70;1722213;82;21053;-76
2023/01/02 09:33:44;;;;;;;13.90;8.55;;;;;;;12.15;74.59;100871.80;1713127;82;21395;-73
2023/01/02 09:36:14;;;;;;;13.45;8.65;;;;;;;12.17;74.51;100875.21;1719719;82;22231;-72
2023/01/02 09:38:41;;;;;;;12.95;7.70;;;;;;;12.20;74.53;100875.16;1722563;82;21688;-73
2023/01/02 09:41:40;;;;;;;11.05;6.78;;;;;;;12.22;74.48;100874.69;1715106;82;21104;-73
2023/01/02 09:44:50;;;;;;;10.13;6.80;;;;;;;12.24;74.49;100883.29;1715102;82;21088;-73
2023/01/02 09:47:20;;;;;;;10.53;6.58;;;;;;;12.26;74.40;100885.86;1714681;82;21097;-73
2023/01/02 09:50:02;;;;;;;10.32;6.53;;;;;;;12.28;74.37;100872.86;1704207;82;21388;-74
2023/01/02 09:52:33;;;;;;;10.65;6.72;;;;;;;12.29;74.34;100870.24;1724059;82;21034;-73
2023/01/02 09:55:01;;;;;;;13.72;6.58;;;;;;;12.32;74.28;100865.44;1715226;82;21636;-74
2023/01/02 09:57:33;;;;;;;15.60;6.40;;;;;;;12.35;74.27;100867.98;1713092;82;21116;-74
2023/01/02 10:00:28;;;;;;;14.20;7.15;;;;;;;12.38;74.24;100864.03;1715255;82;21301;-74
2023/01/02 10:03:05;;;;;;;11.05;6.62;;;;;;;12.42;74.20;100856.16;1695456;83;21552;-73
2023/01/02 10:06:04;;;;;;;12.00;6.58;;;;;;;12.46;74.17;100864.30;1682582;84;21124;-73
2023/01/02 10:08:59;;;;;;;8.63;6.30;;;;;;;12.51;74.14;100863.73;1709398;82;21069;-73
2023/01/02 10:12:01;;;;;;;10.82;6.50;;;;;;;12.55;74.12;100851.11;1626578;87;21146;-73
2023/01/02 10:14:52;;;;;;;7.78;6.05;;;;;;;12.60;74.05;100853.16;1633564;87;21108;-73
2023/01/02 10:17:20;;;;;;;10.45;6.10;;;;;;;12.67;74.03;100855.20;1648432;85;21549;-73
2023/01/02 10:20:26;;;;;;;11.80;6.55;;;;;;;12.72;73.98;100868.08;1602129;87;21108;-73
2023/01/02 10:23:02;;;;;;;9.20;6.28;;;;;;;12.73;73.94;100857.66;1627630;87;21113;-73
2023/01/02 10:25:53;;;;;;;11.75;6.47;;;;;;;12.77;73.92;100854.12;1629418;87;21143;-73
2023/01/02 10:28:42;;;;;;;10.32;6.17;;;;;;;12.81;73.84;100854.47;1649081;85;21256;-73
2023/01/02 10:31:14;;;;;;;9.98;6.37;;;;;;;12.82;73.83;100854.88;1599775;87;21285;-73
2023/01/02 10:34:00;;;;;;;10.82;7.25;;;;;;;12.84;73.76;100853.10;1635723;85;21093;-73
2023/01/02 10:36:35;;;;;;;14.90;7.47;;;;;;;12.85;73.73;100850.06;1639343;85;21185;-73
2023/01/02 10:39:05;;;;;;;11.73;7.10;;;;;;;12.85;73.70;100847.03;1642260;85;21109;-74
2023/01/02 10:41:34;;;;;;;14.25;7.70;;;;;;;12.84;73.56;100844.02;1646523;82;21073;-74
2023/01/02 10:44:34;;;;;;;10.38;7.15;;;;;;;12.84;73.62;100849.66;1710866;82;22280;-74
2023/01/02 10:47:26;;;;;;;11.90;7.33;;;;;;;12.83;73.59;100842.31;1718862;82;21042;-74
2023/01/02 10:49:53;;;;;;;11.28;7.15;;;;;;;12.84;73.49;100849.20;1701540;82;21093;-74
2023/01/02 10:52:29;;;;;;;;;;;;;;;12.86;73.50;100850.03;1716284;82;21069;-74
2023/01/02 10:54:57;;;;;;;16.05;7.10;;;;;;;12.89;73.08;100842.18;1710835;82;20217;-73
2023/01/02 10:57:46;;;;;;;11.22;7.40;;;;;;;12.91;73.42;100854.67;1712289;82;21734;-73
2023/01/02 11:00:26;;;;;;;11.45;6.75;;;;;;;12.93;73.39;100850.31;1709236;82;21028;-73
2023/01/02 11:03:13;;;;;;;9.20;6.55;;;;;;;12.96;73.34;100844.20;1692081;83;21105;-73
2023/01/02 11:05:51;;;;;;;8.53;5.97;;;;;;;12.96;73.30;100838.16;1692401;82;21025;-73
2023/01/02 11:08:20;;;;;;;;;;;;;;;12.95;73.24;100834.70;1715494;82;21067;-73
2023/01/02 11:10:49;;;;;;;9.63;6.42;;;;;;;12.94;72.88;100832.99;1687749;83;21983;-73
2023/01/02 11:13:20;;;;;;;10.58;7.20;;;;;;;12.96;73.21;100822.14;1705110;83;21028;-73
2023/01/02 11:15:52;;;;;;;15.95;7.17;;;;;;;12.97;73.14;100829.03;1716876;83;21050;-75
2023/01/02 11:18:29;;;;;;;9.43;6.80;;;;;;;12.97;73.12;100830.77;1680115;84;21097;-75
2023/01/02 11:21:03;;;;;;;17.98;7.22;;;;;;;12.98;73.42;100827.30;1709949;83;21089;-75
2023/01/02 11:23:39;;;;;;;8.95;6.83;;;;;;;12.99;73.19;100834.19;1694223;82;21452;-75
2023/01/02 11:26:12;;;;;;;10.25;6.35;;;;;;;13.00;73.10;100827.63;1701066;83;21068;-75
2023/01/02 11:28:40;;;;;;;9.95;6.25;;;;;;;13.01;73.01;100819.41;1713748;82;21549;-75
2023/01/02 11:31:10;;;;;;;9.30;6.50;;;;;;;13.01;72.97;100822.00;1693554;83;21043;-75
2023/01/02 11:33:37;;;;;;;8.23;6.28;;;;;;;13.02;72.95;100817.22;1714357;83;21047;-75
2023/01/02 11:36:12;;;;;;;12.25;7.35;;;;;;;13.02;72.92;100815.92;1702480;83;21740;-75
2023/01/02 11:38:52;;;;;;;10.72;6.28;;;;;;;13.01;72.89;100805.98;1705669;81;21070;-75
2023/01/02 11:44:31;;;;;;;8.50;6.35;;;;;;;13.00;72.78;100803.45;1694041;82;21409;-75
2023/01/02 11:47:00;;;;;;;9.58;6.80;;;;;;;12.98;72.74;100789.66;1719628;83;21043;-75
2023/01/02 11:49:31;;;;;;;9.60;6.85;;;;;;;12.96;72.67;100801.81;1688804;83;21631;-75